Time;durP1;ratioP1;P1;durP2;ratioP2;P2;SDS_P1;SDS_P2;PMS_P1;PMS_P2;Temp;Humidity;BMP_temperature;BMP_pressure;BME280_temperature;BME280_humidity;BME280_pressure;Samples;Min_cycle;Max_cycle;Signal;HPM_P1;HPM_P2
2023/05/15 00:00:59;;;;;;;32.03;24.13;;;;;;;11.59;100.00;101483.44;5053377;28;20020;-70
2023/05/15 00:03:24;;;;;;;30.40;22.58;;;;;;;11.60;100.00;101494.72;5053721;28;20029;-70
2023/05/15 00:05:51;;;;;;;34.47;23.10;;;;;;;11.53;100.00;101495.72;5052288;28;20033;-70
2023/05/15 00:08:16;;;;;;;34.40;23.58;;;;;;;11.45;100.00;101491.50;5053210;28;20025;-71
2023/05/15 00:10:42;;;;;;;33.75;24.13;;;;;;;11.40;100.00;101484.63;5053277;28;20104;-70
2023/05/15 00:13:07;;;;;;;32.47;23.52;;;;;;;11.40;100.00;101482.00;5048788;28;20025;-70
2023/05/15 00:15:32;;;;;;;32.58;24.02;;;;;;;11.30;100.00;101481.31;5050290;28;20041;-71
2023/05/15 00:17:58;;;;;;;35.35;25.15;;;;;;;11.26;100.00;101482.25;5049806;28;20033;-71
2023/05/15 00:20:23;;;;;;;35.03;25.13;;;;;;;11.20;100.00;101477.97;5052240;28;20079;-71
2023/05/15 00:22:48;;;;;;;35.00;24.70;;;;;;;11.21;100.00;101486.66;5051080;28;20025;-71
2023/05/15 00:25:14;;;;;;;33.92;25.02;;;;;;;11.14;100.00;101478.06;5052062;28;20029;-70
2023/05/15 00:27:39;;;;;;;37.03;25.42;;;;;;;11.13;100.00;101483.31;5052835;28;20108;-71
2023/05/15 00:30:05;;;;;;;34.88;24.98;;;;;;;11.09;100.00;101494.69;5052451;28;20032;-71
2023/05/15 00:32:31;;;;;;;33.78;24.27;;;;;;;11.01;100.00;101469.56;5052425;28;20056;-70
2023/05/15 00:34:56;;;;;;;37.72;25.85;;;;;;;10.96;100.00;101475.75;5052717;28;20063;-71
2023/05/15 00:37:22;;;;;;;38.58;25.40;;;;;;;10.96;100.00;101478.38;5052582;28;20036;-71
2023/05/15 00:39:48;;;;;;;34.97;25.63;;;;;;;10.91;100.00;101467.97;5051869;28;20518;-71
2023/05/15 00:42:14;;;;;;;35.50;24.83;;;;;;;10.84;100.00;101462.88;5052903;28;20025;-70
2023/05/15 00:44:40;;;;;;;37.45;25.52;;;;;;;10.84;100.00;101478.53;5052541;28;20013;-71
2023/05/15 00:47:06;;;;;;;35.28;25.30;;;;;;;10.80;100.00;101464.69;5051803;28;20055;-71
2023/05/15 00:49:34;;;;;;;35.78;24.58;;;;;;;10.76;100.00;101469.09;5052545;28;20110;-70
2023/05/15 00:52:02;;;;;;;36.28;26.88;;;;;;;10.72;100.00;101462.16;5052154;28;20488;-70
2023/05/15 00:54:28;;;;;;;38.80;25.30;;;;;;;10.68;100.00;101476.13;5051918;28;20032;-70
2023/05/15 00:56:56;;;;;;;36.25;25.92;;;;;;;10.62;100.00;101470.16;5052455;28;20372;-70
2023/05/15 00:59:24;;;;;;;37.97;26.70;;;;;;;10.54;100.00;101458.09;5052667;28;20025;-70
2023/05/15 01:01:53;;;;;;;40.78;26.80;;;;;;;10.54;100.00;101467.66;5051704;28;20036;-70
2023/05/15 01:04:18;;;;;;;38.88;26.42;;;;;;;10.46;100.00;101462.56;5052205;28;20053;-71
2023/05/15 01:06:43;;;;;;;39.58;26.88;;;;;;;10.44;100.00;101455.63;5051991;28;20113;-71
2023/05/15 01:09:11;;;;;;;41.30;29.58;;;;;;;10.38;100.00;101456.56;5051586;28;20037;-70
2023/05/15 01:11:38;;;;;;;38.88;26.70;;;;;;;10.19;100.00;101436.78;5052684;28;20025;-70
2023/05/15 01:14:05;;;;;;;39.47;26.55;;;;;;;10.22;100.00;101450.63;5052060;28;20028;-71
2023/05/15 01:16:31;;;;;;;37.53;26.27;;;;;;;10.20;100.00;101456.75;5052575;28;20052;-71
2023/05/15 01:18:57;;;;;;;39.47;26.90;;;;;;;10.16;100.00;101450.72;5052240;28;20180;-71
2023/05/15 01:21:31;;;;;;;39.08;26.95;;;;;;;10.20;100.00;101451.53;5050595;28;20021;-71
2023/05/15 01:24:25;;;;;;;40.47;27.25;;;;;;;10.16;100.00;101450.72;5043255;28;20032;-70
2023/05/15 01:27:17;;;;;;;38.45;25.50;;;;;;;10.14;100.00;101447.28;5046454;28;20029;-70
2023/05/15 01:29:46;;;;;;;40.42;26.35;;;;;;;10.13;100.00;101444.69;5050121;28;20033;-71
2023/05/15 01:32:19;;;;;;;41.88;26.45;;;;;;;10.11;100.00;101439.50;5052289;28;20024;-71
2023/05/15 01:35:10;;;;;;;42.08;27.92;;;;;;;10.17;100.00;101438.53;5049457;28;20096;-71
2023/05/15 01:37:41;;;;;;;45.50;28.67;;;;;;;10.16;100.00;101444.63;5051602;28;20041;-70
2023/05/15 01:40:09;;;;;;;40.35;27.60;;;;;;;10.17;100.00;101446.34;5050270;28;20036;-70
2023/05/15 01:42:36;;;;;;;39.38;27.15;;;;;;;10.19;100.00;101444.59;5055401;28;20064;-71
2023/05/15 01:45:10;;;;;;;44.28;27.92;;;;;;;10.15;100.00;101440.31;5055821;28;20035;-71
2023/05/15 01:47:43;;;;;;;38.80;27.23;;;;;;;10.01;100.00;101432.69;5056390;28;20100;-71
2023/05/15 01:50:12;;;;;;;39.38;27.73;;;;;;;10.03;100.00;101438.72;5055025;28;20365;-70
2023/05/15 01:52:41;;;;;;;44.80;28.50;;;;;;;10.01;100.00;101436.13;5055612;28;20461;-71
2023/05/15 01:55:08;;;;;;;43.22;29.10;;;;;;;10.03;100.00;101423.94;5055765;28;20025;-70
2023/05/15 01:57:34;;;;;;;42.15;28.48;;;;;;;9.97;100.00;101431.84;5055312;28;20025;-71
2023/05/15 02:00:00;;;;;;;42.38;27.77;;;;;;;9.99;100.00;101426.59;5055750;28;20017;-71
2023/05/15 02:02:27;;;;;;;43.53;29.05;;;;;;;10.04;100.00;101433.50;5055778;28;20107;-71
2023/05/15 02:04:54;;;;;;;42.13;29.70;;;;;;;9.83;100.00;101395.53;5054916;28;20040;-71
2023/05/15 02:07:20;;;;;;;41.67;29.30;;;;;;;10.01;100.00;101430.06;5055447;28;20461;-71
2023/05/15 02:09:46;;;;;;;45.22;29.05;;;;;;;10.02;100.00;101423.97;5055214;28;20457;-71
2023/05/15 02:12:12;;;;;;;47.75;33.05;;;;;;;9.95;100.00;101427.53;5051841;28;20112;-70
2023/05/15 02:14:40;;;;;;;45.13;29.83;;;;;;;9.98;100.00;101419.69;5054012;28;20087;-71
2023/05/15 02:17:05;;;;;;;47.58;31.08;;;;;;;10.01;100.00;101424.88;5050211;28;20354;-71
2023/05/15 02:19:31;;;;;;;43.40;29.92;;;;;;;9.96;100.00;101422.28;5054470;28;20051;-71
2023/05/15 02:21:56;;;;;;;50.65;32.95;;;;;;;9.99;100.00;101430.06;5055137;28;20462;-71
2023/05/15 02:24:21;;;;;;;47.15;30.30;;;;;;;9.99;100.00;101426.59;5055289;28;20025;-71
2023/05/15 02:27:07;;;;;;;45.05;31.65;;;;;;;9.96;100.00;101427.50;5054362;28;20057;-71
2023/05/15 02:29:55;;;;;;;46.78;30.50;;;;;;;9.93;100.00;101424.06;5054988;28;20029;-71
2023/05/15 02:32:37;;;;;;;47.08;31.90;;;;;;;9.89;100.00;101425.84;5053958;28;20037;-70
2023/05/15 02:35:19;;;;;;;47.63;32.15;;;;;;;9.85;100.00;101429.38;5055019;28;20021;-71
2023/05/15 02:37:55;;;;;;;47.30;31.42;;;;;;;9.81;100.00;101443.31;5054910;28;20175;-71
2023/05/15 02:40:23;;;;;;;52.83;33.72;;;;;;;9.72;100.00;101438.19;5054506;28;20021;-70
2023/05/15 02:42:51;;;;;;;50.45;34.55;;;;;;;9.77;100.00;101452.88;5053948;28;20033;-70
2023/05/15 02:45:18;;;;;;;50.92;34.15;;;;;;;9.73;100.00;101445.97;5053286;28;20044;-70
2023/05/15 02:47:44;;;;;;;51.88;34.13;;;;;;;9.69;100.00;101448.66;5050854;28;20049;-71
2023/05/15 02:50:10;;;;;;;53.42;34.13;;;;;;;9.62;100.00;101432.22;5053311;28;20126;-70
2023/05/15 02:52:35;;;;;;;47.50;34.05;;;;;;;9.66;100.00;101448.66;5051315;28;20025;-71
2023/05/15 02:55:01;;;;;;;54.72;34.25;;;;;;;9.61;100.00;101439.19;5053568;28;20035;-70
2023/05/15 02:57:26;;;;;;;55.90;36.50;;;;;;;9.56;100.00;101432.28;5052917;28;20103;-71
2023/05/15 02:59:54;;;;;;;58.47;36.67;;;;;;;9.54;100.00;101434.03;5053286;28;20367;-71
2023/05/15 03:02:19;;;;;;;54.92;36.65;;;;;;;9.53;100.00;101435.78;5052398;28;20096;-70
2023/05/15 03:04:45;;;;;;;57.42;37.22;;;;;;;9.52;100.00;101436.66;5052199;28;20116;-71
2023/05/15 03:07:10;;;;;;;55.97;37.13;;;;;;;9.50;100.00;101432.34;5053759;28;20013;-71
2023/05/15 03:09:35;;;;;;;52.70;35.17;;;;;;;9.47;100.00;101435.81;5053285;28;20112;-70
2023/05/15 03:12:00;;;;;;;58.83;36.50;;;;;;;9.43;100.00;101428.06;5051450;28;20021;-71
2023/05/15 03:14:29;;;;;;;59.80;36.42;;;;;;;9.44;100.00;101433.25;5053835;28;20056;-71
2023/05/15 03:16:54;;;;;;;55.58;36.28;;;;;;;9.39;100.00;101435.06;5053266;28;20032;-71
2023/05/15 03:19:19;;;;;;;62.55;38.08;;;;;;;9.34;100.00;101418.59;5051119;28;20370;-70
2023/05/15 03:21:45;;;;;;;58.42;36.97;;;;;;;9.32;100.00;101421.22;5052389;28;20033;-71
2023/05/15 03:24:10;;;;;;;59.83;39.63;;;;;;;9.34;100.00;101427.25;5053347;28;20025;-70
2023/05/15 03:26:36;;;;;;;60.95;38.97;;;;;;;9.32;100.00;101438.59;5053148;28;20032;-70
2023/05/15 03:29:01;;;;;;;59.42;36.17;;;;;;;9.13;100.00;101402.31;5052153;28;20064;-70
2023/05/15 03:31:27;;;;;;;58.80;37.53;;;;;;;9.21;100.00;101414.38;5053270;28;20082;-70
2023/05/15 03:33:52;;;;;;;65.13;39.25;;;;;;;9.26;100.00;101434.28;5049385;28;20114;-71
2023/05/15 03:36:17;;;;;;;57.67;37.47;;;;;;;9.20;100.00;101423.94;5052379;28;20392;-70
2023/05/15 03:38:43;;;;;;;62.17;37.72;;;;;;;9.14;100.00;101413.56;5051731;28;20056;-71
2023/05/15 03:41:11;;;;;;;61.80;36.83;;;;;;;9.10;100.00;101424.88;5054145;28;20066;-71
2023/05/15 03:43:36;;;;;;;61.63;37.08;;;;;;;9.07;100.00;101407.56;5052211;28;20021;-70
2023/05/15 03:46:02;;;;;;;60.47;38.22;;;;;;;8.99;100.00;101404.19;5051782;28;20378;-71
2023/05/15 03:48:27;;;;;;;59.78;37.22;;;;;;;8.95;100.00;101410.25;5051504;28;20499;-70
2023/05/15 03:50:52;;;;;;;58.90;37.75;;;;;;;9.00;100.00;101416.28;5052031;28;20062;-71
2023/05/15 03:53:18;;;;;;;64.03;38.55;;;;;;;8.91;100.00;101398.16;5051933;28;20491;-71
2023/05/15 03:55:43;;;;;;;61.05;38.13;;;;;;;8.97;100.00;101420.66;5053156;28;20021;-71
2023/05/15 03:58:08;;;;;;;62.03;37.50;;;;;;;8.90;100.00;101410.31;5053024;28;20033;-71
2023/05/15 04:00:40;;;;;;;59.60;36.75;;;;;;;8.89;100.00;101408.59;5053690;28;20469;-71
2023/05/15 04:03:08;;;;;;;64.95;38.35;;;;;;;8.86;100.00;101408.59;5052382;28;20028;-70
2023/05/15 04:05:33;;;;;;;58.63;37.10;;;;;;;8.78;100.00;101404.31;5053345;28;20021;-71
2023/05/15 04:07:59;;;;;;;57.00;37.25;;;;;;;8.86;100.00;101419.00;5050514;28;20539;-71
2023/05/15 04:10:24;;;;;;;63.15;37.08;;;;;;;8.83;100.00;101418.16;5048065;28;20427;-70
2023/05/15 04:12:50;;;;;;;64.45;39.15;;;;;;;8.81;100.00;101412.09;5053124;28;20120;-70
2023/05/15 04:15:21;;;;;;;64.10;38.85;;;;;;;8.82;100.00;101412.06;5053671;28;20021;-71
2023/05/15 04:17:49;;;;;;;66.70;39.15;;;;;;;8.84;100.00;101417.28;5038545;28;20032;-71
2023/05/15 04:20:16;;;;;;;64.03;39.55;;;;;;;8.89;100.00;101412.91;5053374;28;20029;-71
2023/05/15 04:22:42;;;;;;;70.60;40.17;;;;;;;8.88;100.00;101412.03;5052573;28;20372;-71
2023/05/15 04:25:09;;;;;;;65.30;39.53;;;;;;;8.87;100.00;101407.72;5052681;28;20031;-71
2023/05/15 04:27:35;;;;;;;62.75;38.45;;;;;;;8.85;100.00;101413.81;5052858;28;20037;-71
2023/05/15 04:30:02;;;;;;;71.03;40.80;;;;;;;8.87;100.00;101414.66;5051729;28;20384;-70
2023/05/15 04:32:27;;;;;;;72.65;42.28;;;;;;;8.89;100.00;101424.19;5052559;28;20029;-71
2023/05/15 04:34:53;;;;;;;71.45;40.50;;;;;;;8.93;100.00;101425.03;5052477;28;20024;-70
2023/05/15 04:37:18;;;;;;;68.53;40.50;;;;;;;8.98;100.00;101430.19;5052936;28;20056;-70
2023/05/15 04:39:46;;;;;;;69.00;40.80;;;;;;;9.00;100.00;101429.28;5051904;28;20025;-71
2023/05/15 04:42:11;;;;;;;69.55;42.22;;;;;;;8.93;100.00;101416.34;5052786;28;20423;-71
2023/05/15 04:44:37;;;;;;;67.43;40.88;;;;;;;9.03;100.00;101434.47;5052826;28;20025;-71
2023/05/15 04:47:02;;;;;;;67.30;40.92;;;;;;;9.10;100.00;101449.16;5051853;28;20020;-70
2023/05/15 04:49:28;;;;;;;70.30;40.58;;;;;;;9.06;100.00;101447.47;5052704;28;20111;-71
2023/05/15 04:51:53;;;;;;;71.68;41.90;;;;;;;9.02;100.00;101445.72;5050001;28;20027;-70
2023/05/15 04:54:19;;;;;;;69.78;41.65;;;;;;;9.01;100.00;101440.56;5051944;28;20372;-71
2023/05/15 04:56:45;;;;;;;69.18;41.13;;;;;;;9.07;100.00;101443.97;5038343;28;20029;-71
2023/05/15 04:59:12;;;;;;;65.68;40.40;;;;;;;9.14;100.00;101439.59;5051738;28;20361;-71
2023/05/15 05:01:37;;;;;;;62.70;38.85;;;;;;;9.22;100.00;101447.31;5052184;28;20032;-71
2023/05/15 05:04:02;;;;;;;66.57;41.03;;;;;;;9.30;100.00;101440.31;5052278;28;20109;-71
2023/05/15 05:06:31;;;;;;;67.55;41.00;;;;;;;9.40;100.00;101447.16;5052051;28;20554;-72
2023/05/15 05:08:57;;;;;;;68.75;42.53;;;;;;;9.52;100.00;101447.06;5052048;28;20252;-71
2023/05/15 05:11:22;;;;;;;75.90;43.55;;;;;;;9.60;100.00;101433.97;5052651;28;20024;-70
2023/05/15 05:13:48;;;;;;;74.60;43.40;;;;;;;9.79;100.00;101445.91;5051214;28;20381;-71
2023/05/15 05:16:13;;;;;;;74.07;45.25;;;;;;;9.93;100.00;101450.13;5052340;28;20048;-71
2023/05/15 05:18:41;;;;;;;70.20;43.65;;;;;;;10.01;100.00;101451.78;5051793;28;20052;-71
2023/05/15 05:21:07;;;;;;;68.60;43.47;;;;;;;10.07;100.00;101450.81;5051580;28;20017;-71
2023/05/15 05:23:32;;;;;;;73.65;44.00;;;;;;;10.17;100.00;101457.66;5051883;28;20056;-70
2023/05/15 05:25:58;;;;;;;75.20;43.97;;;;;;;10.27;100.00;101454.09;5052094;28;20018;-71
2023/05/15 05:28:24;;;;;;;71.45;42.95;;;;;;;10.38;100.00;101459.16;5051210;28;20025;-71
2023/05/15 05:30:49;;;;;;;72.28;43.05;;;;;;;10.44;100.00;101458.22;5051971;28;20025;-71
2023/05/15 05:33:14;;;;;;;76.88;43.47;;;;;;;10.32;100.00;101462.69;5052250;28;20013;-70
2023/05/15 05:35:40;;;;;;;72.32;43.05;;;;;;;10.36;100.00;101473.94;5051258;28;20029;-71
2023/05/15 05:38:05;;;;;;;70.95;41.90;;;;;;;10.37;100.00;101470.47;5051955;28;20053;-71
2023/05/15 05:40:31;;;;;;;67.03;40.95;;;;;;;10.33;100.00;101473.97;5052406;28;20033;-71
2023/05/15 05:43:00;;;;;;;69.43;41.00;;;;;;;10.32;100.00;101477.47;5051164;28;20112;-71
2023/05/15 05:45:26;;;;;;;67.05;40.45;;;;;;;10.39;100.00;101480.88;5051944;28;20385;-70
2023/05/15 05:47:52;;;;;;;62.55;38.70;;;;;;;10.48;100.00;101484.22;5051738;28;20024;-70
2023/05/15 05:50:17;;;;;;;57.17;34.22;;;;;;;10.40;100.00;101474.78;5051408;28;20059;-71
2023/05/15 05:52:42;;;;;;;58.70;34.25;;;;;;;10.38;100.00;101474.81;5051815;28;20029;-71
2023/05/15 05:55:08;;;;;;;56.38;33.30;;;;;;;10.43;100.00;101464.31;5051208;28;20078;-70
2023/05/15 05:57:34;;;;;;;52.15;32.72;;;;;;;10.54;100.00;101471.13;5050185;28;20476;-71
2023/05/15 05:59:59;;;;;;;53.72;33.90;;;;;;;10.57;100.00;101477.19;5049119;28;20056;-70
2023/05/15 06:02:24;;;;;;;53.80;32.35;;;;;;;10.64;100.00;101484.88;5043826;28;20100;-70
2023/05/15 06:04:50;;;;;;;52.88;33.28;;;;;;;10.78;100.00;101479.47;5043743;28;20053;-71
2023/05/15 06:07:18;;;;;;;52.45;33.38;;;;;;;10.86;100.00;101474.19;5049020;28;20453;-70
2023/05/15 06:09:44;;;;;;;53.42;33.42;;;;;;;10.95;100.00;101469.69;5049774;28;20025;-71
2023/05/15 06:12:10;;;;;;;50.58;32.08;;;;;;;11.07;100.00;101479.06;5051691;28;20403;-70
2023/05/15 06:14:35;;;;;;;51.22;33.05;;;;;;;11.18;100.00;101471.94;5051943;28;20040;-70
2023/05/15 06:17:00;;;;;;;50.08;32.63;;;;;;;11.33;100.00;101476.03;5050564;28;20021;-71
2023/05/15 06:19:26;;;;;;;45.22;30.70;;;;;;;11.40;100.00;101466.34;5052046;28;20071;-70
2023/05/15 06:21:52;;;;;;;43.92;29.67;;;;;;;11.43;100.00;101469.75;5051578;28;20021;-71
2023/05/15 06:24:17;;;;;;;42.67;29.67;;;;;;;11.56;100.00;101478.25;5050808;28;20017;-71
2023/05/15 06:26:42;;;;;;;47.42;29.52;;;;;;;11.53;100.00;101454.81;5048709;28;20129;-70
2023/05/15 06:29:08;;;;;;;41.22;28.38;;;;;;;11.78;100.00;101467.44;5055262;28;20481;-70
2023/05/15 06:31:33;;;;;;;44.28;29.20;;;;;;;11.91;100.00;101477.66;5054312;28;20496;-71
2023/05/15 06:33:58;;;;;;;39.33;27.77;;;;;;;11.91;100.00;101476.78;5055041;28;20029;-70
2023/05/15 06:36:24;;;;;;;42.13;28.35;;;;;;;11.92;100.00;101476.75;5041316;28;20032;-70
2023/05/15 06:38:49;;;;;;;44.20;29.05;;;;;;;11.90;100.00;101477.66;5054081;28;20610;-70
2023/05/15 06:41:14;;;;;;;42.42;29.10;;;;;;;12.00;100.00;101478.34;5055215;28;20079;-70
2023/05/15 06:43:40;;;;;;;42.63;29.52;;;;;;;12.04;100.00;101474.81;5054550;28;20086;-77
2023/05/15 06:46:05;;;;;;;44.40;29.75;;;;;;;12.12;100.00;101468.53;5051931;28;20117;-71
2023/05/15 06:48:30;;;;;;;39.38;27.85;;;;;;;12.29;100.00;101468.19;5052424;28;20032;-71
2023/05/15 06:50:55;;;;;;;40.78;28.63;;;;;;;12.15;100.00;101468.47;5054672;28;20465;-71
2023/05/15 06:53:21;;;;;;;43.92;29.52;;;;;;;11.84;100.00;101463.00;5053987;28;20037;-71
2023/05/15 06:55:46;;;;;;;44.00;29.15;;;;;;;11.77;100.00;101471.81;5054554;28;20029;-71
2023/05/15 06:58:11;;;;;;;39.28;28.92;;;;;;;11.69;100.00;101471.06;5054740;28;20021;-71
2023/05/15 07:00:36;;;;;;;42.15;29.42;;;;;;;11.77;100.00;101474.41;5048534;28;20037;-71
2023/05/15 07:03:02;;;;;;;42.38;29.65;;;;;;;12.00;100.00;101468.78;5053100;28;20415;-71
2023/05/15 07:05:27;;;;;;;43.20;30.15;;;;;;;12.08;100.00;101466.00;5050921;28;20098;-71
2023/05/15 07:07:52;;;;;;;43.10;31.38;;;;;;;12.18;100.00;101471.03;5052846;28;20024;-71
2023/05/15 07:10:18;;;;;;;44.63;32.15;;;;;;;12.43;100.00;101462.69;5052485;28;20040;-71
2023/05/15 07:12:43;;;;;;;46.67;33.83;;;;;;;12.40;100.00;101471.44;5049156;28;20100;-70
2023/05/15 07:15:09;;;;;;;50.10;34.20;;;;;;;12.49;100.00;101469.50;5046348;28;20027;-70
2023/05/15 07:17:34;;;;;;;54.35;35.28;;;;;;;12.65;100.00;101470.91;5054463;28;20029;-71
2023/05/15 07:20:00;;;;;;;46.65;33.45;;;;;;;12.64;100.00;101458.72;5053708;28;20032;-71
2023/05/15 07:22:28;;;;;;;46.85;32.63;;;;;;;12.73;100.00;101465.53;5051802;28;20478;-71
2023/05/15 07:24:53;;;;;;;48.88;33.40;;;;;;;13.00;100.00;101457.03;5050140;28;20033;-70
2023/05/15 07:27:19;;;;;;;51.63;33.15;;;;;;;13.15;100.00;101452.34;5052583;28;20495;-71
2023/05/15 07:29:47;;;;;;;53.28;36.55;;;;;;;13.39;100.00;101461.38;5050149;28;20040;-71
2023/05/15 07:32:12;;;;;;;52.00;36.92;;;;;;;13.38;96.46;101462.28;5053504;28;20037;-71
2023/05/15 07:34:37;;;;;;;49.28;36.22;;;;;;;13.43;97.71;101455.16;5053251;28;20024;-71
2023/05/15 07:37:03;;;;;;;49.95;36.17;;;;;;;13.51;95.57;101455.81;5053932;28;20026;-72
2023/05/15 07:39:28;;;;;;;51.70;36.17;;;;;;;13.53;95.63;101456.63;5049692;28;20029;-73
2023/05/15 07:41:54;;;;;;;53.80;38.20;;;;;;;13.60;95.87;101445.06;5045395;28;20025;-71
2023/05/15 07:44:19;;;;;;;50.95;36.70;;;;;;;13.76;96.51;101445.53;5052394;28;20187;-71
2023/05/15 07:46:45;;;;;;;54.05;36.85;;;;;;;13.86;95.74;101440.91;5053624;28;20096;-71
2023/05/15 07:49:10;;;;;;;49.47;36.55;;;;;;;13.89;94.52;101444.28;5052726;28;20090;-72
2023/05/15 07:51:35;;;;;;;50.22;36.55;;;;;;;13.84;95.62;101446.19;5042644;28;20044;-71
2023/05/15 07:54:02;;;;;;;53.47;39.67;;;;;;;13.81;97.56;101439.28;5053009;28;20017;-70
2023/05/15 07:56:28;;;;;;;57.35;41.35;;;;;;;13.78;95.61;101434.13;5053243;28;20048;-70
2023/05/15 07:58:53;;;;;;;56.78;41.75;;;;;;;13.71;96.50;101447.44;5053375;28;20431;-71
2023/05/15 08:01:18;;;;;;;56.45;40.95;;;;;;;13.50;94.46;101436.59;5053775;28;20059;-71
2023/05/15 08:03:44;;;;;;;58.72;42.83;;;;;;;13.46;98.13;101444.59;5052707;28;20473;-71
2023/05/15 08:06:09;;;;;;;63.45;43.25;;;;;;;13.56;99.50;101438.22;5053832;28;20048;-70
2023/05/15 08:08:34;;;;;;;55.13;41.65;;;;;;;13.66;95.83;101439.69;5053158;28;20486;-70
2023/05/15 08:11:00;;;;;;;56.92;40.95;;;;;;;13.71;98.79;101443.06;5059396;28;20048;-76
2023/05/15 08:13:25;;;;;;;58.40;42.42;;;;;;;13.82;98.44;101443.59;5053247;28;20024;-71
2023/05/15 08:15:50;;;;;;;54.75;40.75;;;;;;;13.80;96.57;101427.09;5053128;28;20100;-71
2023/05/15 08:18:16;;;;;;;55.30;40.67;;;;;;;13.89;95.97;101433.81;5052442;28;20025;-71
2023/05/15 08:20:41;;;;;;;50.75;38.67;;;;;;;14.00;94.56;101441.41;5053021;28;20033;-71
2023/05/15 08:23:06;;;;;;;53.70;40.28;;;;;;;14.02;93.13;101436.94;5052364;28;20085;-71
2023/05/15 08:25:31;;;;;;;56.85;40.88;;;;;;;14.15;91.71;101442.72;5052845;28;20043;-70
2023/05/15 08:27:57;;;;;;;55.60;38.53;;;;;;;14.28;97.21;101431.81;5052798;28;20032;-70
2023/05/15 08:30:22;;;;;;;50.75;36.22;;;;;;;14.58;93.05;101430.97;5044026;28;20797;-70
2023/05/15 08:32:48;;;;;;;48.03;35.70;;;;;;;14.67;86.16;101441.19;5046173;28;20036;-71
2023/05/15 08:35:13;;;;;;;49.88;37.05;;;;;;;14.73;85.80;101435.75;5039166;28;20021;-71
2023/05/15 08:37:39;;;;;;;51.38;37.97;;;;;;;14.91;86.82;101443.06;5039917;28;20037;-71
2023/05/15 08:40:06;;;;;;;49.60;36.95;;;;;;;15.09;87.99;101438.97;5050928;28;20028;-70
2023/05/15 08:42:43;;;;;;;47.08;35.60;;;;;;;15.33;85.66;101439.06;5052962;28;20019;-70
2023/05/15 08:45:12;;;;;;;50.03;36.85;;;;;;;15.48;80.03;101440.31;5051987;28;20021;-71
2023/05/15 08:47:40;;;;;;;47.38;35.53;;;;;;;15.48;80.50;101435.91;5052590;28;20029;-70
2023/05/15 08:50:14;;;;;;;45.95;35.75;;;;;;;15.49;84.50;101442.88;5052040;28;20037;-70
2023/05/15 08:52:45;;;;;;;45.95;34.35;;;;;;;15.47;81.60;101436.84;5051717;28;20099;-71
2023/05/15 08:55:12;;;;;;;49.25;34.78;;;;;;;15.46;80.84;101442.97;5052247;28;20040;-71
2023/05/15 08:57:37;;;;;;;43.92;34.50;;;;;;;15.43;81.44;101428.22;5052558;28;20400;-70
2023/05/15 09:00:07;;;;;;;46.90;33.45;;;;;;;15.57;78.78;101435.59;5052046;28;20029;-71
2023/05/15 09:02:37;;;;;;;41.65;31.63;;;;;;;15.76;81.30;101437.59;5052477;28;20060;-72
2023/05/15 09:05:04;;;;;;;42.58;31.27;;;;;;;16.11;76.38;101436.31;5052544;28;20032;-72
2023/05/15 09:07:30;;;;;;;43.13;31.55;;;;;;;16.60;75.17;101432.69;5051789;28;20070;-73
2023/05/15 09:09:56;;;;;;;47.22;32.92;;;;;;;17.22;76.97;101432.88;5049702;28;20021;-72
2023/05/15 09:12:24;;;;;;;44.70;34.65;;;;;;;17.45;69.21;101422.22;5051597;28;20032;-72
2023/05/15 09:14:50;;;;;;;42.95;32.83;;;;;;;17.60;69.50;101430.41;5051286;28;20365;-71
2023/05/15 09:17:15;;;;;;;42.60;31.10;;;;;;;17.73;70.23;101431.56;5050202;28;20017;-72
2023/05/15 09:19:41;;;;;;;40.28;31.42;;;;;;;17.93;69.59;101430.72;5036053;28;20040;-71
2023/05/15 09:22:15;;;;;;;41.13;30.15;;;;;;;18.12;70.37;101425.47;5048219;28;20461;-71
2023/05/15 09:24:40;;;;;;;45.65;31.83;;;;;;;17.77;65.25;101430.53;5050619;28;20561;-71
2023/05/15 09:27:07;;;;;;;40.10;31.70;;;;;;;17.45;67.76;101432.75;5042808;28;20030;-71
2023/05/15 09:29:34;;;;;;;38.35;30.40;;;;;;;17.31;67.42;101432.50;5042755;28;20037;-71
2023/05/15 09:32:12;;;;;;;42.17;30.27;;;;;;;17.18;73.66;101426.03;5049432;28;20048;-71
2023/05/15 09:34:39;;;;;;;39.90;29.48;;;;;;;17.04;73.50;101435.34;5049596;28;20461;-71
2023/05/15 09:37:07;;;;;;;36.50;29.20;;;;;;;16.89;75.95;101428.06;5052129;28;20017;-71
2023/05/15 09:39:38;;;;;;;37.78;29.90;;;;;;;16.80;73.16;101437.19;5051684;28;20033;-71
2023/05/15 09:42:09;;;;;;;37.90;27.52;;;;;;;16.54;72.96;101430.28;5037770;28;20032;-71
2023/05/15 09:44:34;;;;;;;41.33;28.85;;;;;;;16.54;77.06;101432.91;5050137;28;20037;-71
2023/05/15 09:47:00;;;;;;;39.95;28.83;;;;;;;16.51;76.38;101440.06;5051779;28;20020;-71
2023/05/15 09:49:29;;;;;;;38.08;29.05;;;;;;;16.56;78.76;101435.50;5051016;28;20543;-71
2023/05/15 09:51:59;;;;;;;40.22;29.92;;;;;;;16.62;79.80;101435.28;5050910;28;20102;-71
2023/05/15 09:54:31;;;;;;;37.60;29.70;;;;;;;16.58;76.67;101431.91;5050953;28;20032;-71
2023/05/15 09:57:10;;;;;;;39.80;29.58;;;;;;;16.62;76.69;101444.00;5049005;28;20394;-71
2023/05/15 09:59:35;;;;;;;39.85;28.10;;;;;;;16.62;77.77;101438.75;5047957;28;20409;-72
2023/05/15 10:02:00;;;;;;;42.90;29.55;;;;;;;16.64;74.72;101441.31;5050104;28;20202;-72
2023/05/15 10:04:32;;;;;;;38.72;29.67;;;;;;;16.66;73.07;101446.53;5039456;28;20962;-72
2023/05/15 10:06:59;;;;;;;40.63;30.15;;;;;;;16.63;74.80;101448.34;5053699;28;20122;-72
2023/05/15 10:09:29;;;;;;;33.55;27.65;;;;;;;16.59;76.26;101422.22;5054110;28;20580;-78
2023/05/15 10:11:57;;;;;;;40.17;29.08;;;;;;;16.76;74.09;101437.38;5055529;28;20056;-72
2023/05/15 10:14:25;;;;;;;37.58;28.48;;;;;;;16.85;74.13;101444.91;5052564;28;20114;-71
2023/05/15 10:16:51;;;;;;;37.17;27.55;;;;;;;16.87;71.34;101440.44;5054153;28;20029;-71
2023/05/15 10:19:21;;;;;;;38.15;29.15;;;;;;;16.83;72.94;101450.22;5054621;28;20155;-72
2023/05/15 10:21:47;;;;;;;36.40;27.63;;;;;;;16.87;73.33;101453.59;5051848;28;20051;-71
2023/05/15 10:24:15;;;;;;;39.28;29.60;;;;;;;16.74;76.05;101447.97;5053293;28;20021;-71
2023/05/15 10:26:41;;;;;;;35.90;28.00;;;;;;;16.68;74.70;101449.97;5054185;28;20033;-71
2023/05/15 10:29:12;;;;;;;33.75;26.30;;;;;;;16.75;77.02;101454.97;5043507;28;20033;-72
2023/05/15 10:31:41;;;;;;;31.45;25.05;;;;;;;16.87;74.82;101450.97;5052849;28;20068;-72
2023/05/15 10:34:07;;;;;;;34.83;26.75;;;;;;;16.93;74.57;101442.81;5055555;28;20033;-71
2023/05/15 10:36:35;;;;;;;34.45;25.00;;;;;;;16.82;74.82;101448.53;5054337;28;20102;-72
2023/05/15 10:39:03;;;;;;;33.58;24.52;;;;;;;16.80;75.85;101450.34;5048420;28;20561;-71
2023/05/15 10:41:29;;;;;;;32.30;24.17;;;;;;;16.89;77.46;101451.78;5049692;28;20025;-71
2023/05/15 10:43:57;;;;;;;31.85;25.15;;;;;;;16.93;76.53;101456.00;5054257;28;20040;-71
2023/05/15 10:46:23;;;;;;;32.88;25.30;;;;;;;16.95;72.88;101450.69;5050969;28;20548;-71
2023/05/15 10:48:53;;;;;;;31.67;24.33;;;;;;;16.84;75.85;101430.91;5052708;28;20031;-71
2023/05/15 10:51:26;;;;;;;30.42;25.10;;;;;;;17.07;77.77;101452.81;5051984;28;20024;-71
2023/05/15 10:53:52;;;;;;;33.22;25.77;;;;;;;17.01;75.49;101443.38;5050445;28;20403;-71
2023/05/15 10:56:17;;;;;;;32.78;25.98;;;;;;;16.96;72.96;101442.69;5053600;28;20460;-71
2023/05/15 10:58:47;;;;;;;32.88;26.65;;;;;;;16.93;75.33;101453.34;5052427;28;20082;-71
2023/05/15 11:01:30;;;;;;;32.65;25.20;;;;;;;17.01;77.15;101447.78;5053455;28;20060;-71
2023/05/15 11:04:12;;;;;;;32.35;26.38;;;;;;;16.92;75.56;101450.78;5052323;28;20477;-70
2023/05/15 11:06:42;;;;;;;33.67;26.13;;;;;;;16.72;75.58;101447.16;5046247;28;20029;-71